sensor_id;sensor_type;location;lat;lon;timestamp;P1;durP1;ratioP1;P2;durP2;ratioP2
49384;SDS011;36795;45.028;38.968;2023-06-01T00:03:20;21.73;;;6.68;;
49384;SDS011;36795;45.028;38.968;2023-06-01T00:06:45;20.58;;;6.55;;
49384;SDS011;36795;45.028;38.968;2023-06-01T00:10:14;22.15;;;7.07;;
49384;SDS011;36795;45.028;38.968;2023-06-01T00:13:35;18.65;;;5.87;;
49384;SDS011;36795;45.028;38.968;2023-06-01T00:16:42;20.52;;;6.97;;
49384;SDS011;36795;45.028;38.968;2023-06-01T00:19:40;20.27;;;7.28;;
49384;SDS011;36795;45.028;38.968;2023-06-01T00:22:47;19.77;;;7.15;;
49384;SDS011;36795;45.028;38.968;2023-06-01T00:25:55;22.40;;;6.93;;
49384;SDS011;36795;45.028;38.968;2023-06-01T00:29:01;19.95;;;7.25;;
49384;SDS011;36795;45.028;38.968;2023-06-01T00:32:03;19.85;;;6.72;;
49384;SDS011;36795;45.028;38.968;2023-06-01T00:35:10;22.85;;;7.12;;
49384;SDS011;36795;45.028;38.968;2023-06-01T00:38:11;22.48;;;6.93;;
49384;SDS011;36795;45.028;38.968;2023-06-01T00:41:19;21.60;;;6.82;;
49384;SDS011;36795;45.028;38.968;2023-06-01T00:44:20;21.15;;;6.47;;
49384;SDS011;36795;45.028;38.968;2023-06-01T00:47:28;26.48;;;7.15;;
49384;SDS011;36795;45.028;38.968;2023-06-01T00:50:43;20.42;;;6.95;;
49384;SDS011;36795;45.028;38.968;2023-06-01T00:53:50;19.42;;;6.85;;
49384;SDS011;36795;45.028;38.968;2023-06-01T00:57:06;20.70;;;6.10;;
49384;SDS011;36795;45.028;38.968;2023-06-01T01:00:26;20.05;;;7.18;;
49384;SDS011;36795;45.028;38.968;2023-06-01T01:03:37;23.98;;;7.40;;
49384;SDS011;36795;45.028;38.968;2023-06-01T01:13:49;21.62;;;6.65;;
49384;SDS011;36795;45.028;38.968;2023-06-01T01:20:36;22.37;;;6.75;;
49384;SDS011;36795;45.028;38.968;2023-06-01T01:23:55;19.85;;;6.95;;
49384;SDS011;36795;45.028;38.968;2023-06-01T01:27:35;22.95;;;7.25;;
49384;SDS011;36795;45.028;38.968;2023-06-01T01:31:19;20.80;;;7.47;;
49384;SDS011;36795;45.028;38.968;2023-06-01T01:34:31;21.40;;;6.78;;
49384;SDS011;36795;45.028;38.968;2023-06-01T01:37:49;22.70;;;6.78;;
49384;SDS011;36795;45.028;38.968;2023-06-01T01:41:05;20.70;;;6.60;;
49384;SDS011;36795;45.028;38.968;2023-06-01T01:44:12;21.33;;;7.18;;
49384;SDS011;36795;45.028;38.968;2023-06-01T01:47:41;25.50;;;7.68;;
49384;SDS011;36795;45.028;38.968;2023-06-01T01:50:58;20.20;;;6.85;;
49384;SDS011;36795;45.028;38.968;2023-06-01T01:54:28;20.88;;;6.72;;
49384;SDS011;36795;45.028;38.968;2023-06-01T01:57:38;23.77;;;7.07;;
49384;SDS011;36795;45.028;38.968;2023-06-01T02:00:47;21.85;;;7.07;;
49384;SDS011;36795;45.028;38.968;2023-06-01T02:03:59;21.45;;;6.70;;
49384;SDS011;36795;45.028;38.968;2023-06-01T02:07:07;20.52;;;7.57;;
49384;SDS011;36795;45.028;38.968;2023-06-01T02:10:10;20.15;;;5.90;;
49384;SDS011;36795;45.028;38.968;2023-06-01T02:13:16;18.83;;;6.50;;
49384;SDS011;36795;45.028;38.968;2023-06-01T02:16:28;22.42;;;7.07;;
49384;SDS011;36795;45.028;38.968;2023-06-01T02:19:35;21.20;;;7.45;;
49384;SDS011;36795;45.028;38.968;2023-06-01T02:22:57;21.37;;;6.22;;
49384;SDS011;36795;45.028;38.968;2023-06-01T02:26:13;22.27;;;6.72;;
49384;SDS011;36795;45.028;38.968;2023-06-01T02:29:24;23.30;;;6.93;;
49384;SDS011;36795;45.028;38.968;2023-06-01T02:32:28;19.00;;;6.70;;
49384;SDS011;36795;45.028;38.968;2023-06-01T02:35:35;21.20;;;6.90;;
49384;SDS011;36795;45.028;38.968;2023-06-01T02:38:56;19.40;;;5.82;;
49384;SDS011;36795;45.028;38.968;2023-06-01T02:41:57;20.33;;;6.15;;
49384;SDS011;36795;45.028;38.968;2023-06-01T02:45:06;21.00;;;6.62;;
49384;SDS011;36795;45.028;38.968;2023-06-01T02:48:19;20.02;;;6.72;;
49384;SDS011;36795;45.028;38.968;2023-06-01T02:51:26;20.15;;;6.40;;
49384;SDS011;36795;45.028;38.968;2023-06-01T02:54:36;20.52;;;6.03;;
49384;SDS011;36795;45.028;38.968;2023-06-01T02:57:55;20.30;;;6.80;;
49384;SDS011;36795;45.028;38.968;2023-06-01T03:01:16;20.25;;;6.18;;
49384;SDS011;36795;45.028;38.968;2023-06-01T03:04:19;21.35;;;7.22;;
49384;SDS011;36795;45.028;38.968;2023-06-01T03:07:33;20.33;;;7.40;;
49384;SDS011;36795;45.028;38.968;2023-06-01T03:10:47;20.83;;;6.53;;
49384;SDS011;36795;45.028;38.968;2023-06-01T03:13:48;20.65;;;6.70;;
49384;SDS011;36795;45.028;38.968;2023-06-01T03:17:07;21.90;;;6.78;;
49384;SDS011;36795;45.028;38.968;2023-06-01T03:23:23;20.90;;;6.28;;
49384;SDS011;36795;45.028;38.968;2023-06-01T03:26:45;22.00;;;7.30;;
49384;SDS011;36795;45.028;38.968;2023-06-01T03:30:05;22.02;;;6.47;;
49384;SDS011;36795;45.028;38.968;2023-06-01T03:33:21;22.37;;;7.25;;
49384;SDS011;36795;45.028;38.968;2023-06-01T03:36:37;20.73;;;6.60;;
49384;SDS011;36795;45.028;38.968;2023-06-01T03:39:57;23.85;;;6.37;;
49384;SDS011;36795;45.028;38.968;2023-06-01T03:43:18;23.92;;;7.28;;
49384;SDS011;36795;45.028;38.968;2023-06-01T03:46:29;19.62;;;6.40;;
49384;SDS011;36795;45.028;38.968;2023-06-01T03:49:36;22.27;;;6.28;;
49384;SDS011;36795;45.028;38.968;2023-06-01T03:52:53;20.33;;;6.62;;
49384;SDS011;36795;45.028;38.968;2023-06-01T03:56:01;20.05;;;6.30;;
49384;SDS011;36795;45.028;38.968;2023-06-01T03:59:03;20.77;;;6.57;;
49384;SDS011;36795;45.028;38.968;2023-06-01T04:02:18;26.20;;;7.28;;
49384;SDS011;36795;45.028;38.968;2023-06-01T04:05:24;21.98;;;7.45;;
49384;SDS011;36795;45.028;38.968;2023-06-01T04:08:27;20.85;;;6.35;;
49384;SDS011;36795;45.028;38.968;2023-06-01T04:11:32;20.70;;;7.20;;
49384;SDS011;36795;45.028;38.968;2023-06-01T04:14:38;20.65;;;6.95;;
49384;SDS011;36795;45.028;38.968;2023-06-01T04:17:54;21.58;;;6.97;;
49384;SDS011;36795;45.028;38.968;2023-06-01T04:20:59;21.33;;;7.25;;
49384;SDS011;36795;45.028;38.968;2023-06-01T04:24:08;32.33;;;9.20;;
49384;SDS011;36795;45.028;38.968;2023-06-01T04:27:12;21.92;;;7.47;;
49384;SDS011;36795;45.028;38.968;2023-06-01T04:30:33;22.10;;;6.90;;
49384;SDS011;36795;45.028;38.968;2023-06-01T04:33:38;22.08;;;7.15;;
49384;SDS011;36795;45.028;38.968;2023-06-01T04:36:54;22.58;;;7.47;;
49384;SDS011;36795;45.028;38.968;2023-06-01T04:40:01;20.33;;;7.62;;
49384;SDS011;36795;45.028;38.968;2023-06-01T04:43:07;20.73;;;7.12;;
49384;SDS011;36795;45.028;38.968;2023-06-01T04:46:25;26.58;;;7.07;;
49384;SDS011;36795;45.028;38.968;2023-06-01T04:49:42;22.92;;;7.10;;
49384;SDS011;36795;45.028;38.968;2023-06-01T04:52:52;22.90;;;7.03;;
49384;SDS011;36795;45.028;38.968;2023-06-01T04:56:09;21.52;;;6.72;;
49384;SDS011;36795;45.028;38.968;2023-06-01T04:59:21;22.45;;;6.78;;
49384;SDS011;36795;45.028;38.968;2023-06-01T05:02:55;23.27;;;6.95;;
49384;SDS011;36795;45.028;38.968;2023-06-01T05:06:24;21.15;;;6.72;;
49384;SDS011;36795;45.028;38.968;2023-06-01T05:09:35;21.30;;;7.10;;
49384;SDS011;36795;45.028;38.968;2023-06-01T05:12:45;21.35;;;7.30;;
49384;SDS011;36795;45.028;38.968;2023-06-01T05:15:48;27.27;;;7.50;;
49384;SDS011;36795;45.028;38.968;2023-06-01T05:18:54;24.15;;;7.05;;
49384;SDS011;36795;45.028;38.968;2023-06-01T05:22:25;23.02;;;7.43;;
49384;SDS011;36795;45.028;38.968;2023-06-01T05:25:33;21.58;;;6.60;;
49384;SDS011;36795;45.028;38.968;2023-06-01T05:29:00;21.15;;;7.00;;
49384;SDS011;36795;45.028;38.968;2023-06-01T05:32:06;20.25;;;6.72;;
49384;SDS011;36795;45.028;38.968;2023-06-01T05:35:11;21.48;;;6.87;;
49384;SDS011;36795;45.028;38.968;2023-06-01T05:38:27;27.35;;;8.77;;
49384;SDS011;36795;45.028;38.968;2023-06-01T05:41:45;20.05;;;5.90;;
49384;SDS011;36795;45.028;38.968;2023-06-01T05:44:46;22.55;;;7.20;;
49384;SDS011;36795;45.028;38.968;2023-06-01T05:48:07;19.58;;;5.53;;
49384;SDS011;36795;45.028;38.968;2023-06-01T05:51:36;20.45;;;5.90;;
49384;SDS011;36795;45.028;38.968;2023-06-01T05:54:46;17.80;;;5.75;;
49384;SDS011;36795;45.028;38.968;2023-06-01T05:57:57;19.58;;;6.25;;
49384;SDS011;36795;45.028;38.968;2023-06-01T06:01:29;20.52;;;6.82;;
49384;SDS011;36795;45.028;38.968;2023-06-01T06:04:47;23.33;;;9.70;;
49384;SDS011;36795;45.028;38.968;2023-06-01T06:07:58;19.80;;;6.32;;
49384;SDS011;36795;45.028;38.968;2023-06-01T06:11:19;19.73;;;5.75;;
49384;SDS011;36795;45.028;38.968;2023-06-01T06:14:25;17.15;;;5.82;;
49384;SDS011;36795;45.028;38.968;2023-06-01T06:17:39;21.10;;;6.10;;
49384;SDS011;36795;45.028;38.968;2023-06-01T06:20:41;23.05;;;7.37;;
49384;SDS011;36795;45.028;38.968;2023-06-01T06:23:54;20.20;;;6.53;;
49384;SDS011;36795;45.028;38.968;2023-06-01T06:27:10;21.50;;;6.68;;
49384;SDS011;36795;45.028;38.968;2023-06-01T06:30:33;21.73;;;6.30;;
49384;SDS011;36795;45.028;38.968;2023-06-01T06:33:54;19.58;;;6.35;;
49384;SDS011;36795;45.028;38.968;2023-06-01T06:37:13;15.88;;;5.50;;
49384;SDS011;36795;45.028;38.968;2023-06-01T06:40:25;23.00;;;7.40;;
49384;SDS011;36795;45.028;38.968;2023-06-01T06:43:29;20.27;;;6.20;;
49384;SDS011;36795;45.028;38.968;2023-06-01T06:46:47;19.33;;;6.00;;
49384;SDS011;36795;45.028;38.968;2023-06-01T06:49:55;20.05;;;6.43;;
49384;SDS011;36795;45.028;38.968;2023-06-01T06:53:10;19.55;;;7.20;;
49384;SDS011;36795;45.028;38.968;2023-06-01T06:56:14;20.95;;;7.05;;
49384;SDS011;36795;45.028;38.968;2023-06-01T06:59:25;20.30;;;6.95;;
49384;SDS011;36795;45.028;38.968;2023-06-01T07:02:50;21.58;;;6.50;;
49384;SDS011;36795;45.028;38.968;2023-06-01T07:06:11;19.83;;;6.47;;
49384;SDS011;36795;45.028;38.968;2023-06-01T07:09:22;22.33;;;7.03;;
49384;SDS011;36795;45.028;38.968;2023-06-01T07:15:56;20.65;;;6.50;;
49384;SDS011;36795;45.028;38.968;2023-06-01T07:19:08;18.58;;;5.87;;
49384;SDS011;36795;45.028;38.968;2023-06-01T07:22:23;18.52;;;6.18;;
49384;SDS011;36795;45.028;38.968;2023-06-01T07:25:34;19.48;;;6.30;;
49384;SDS011;36795;45.028;38.968;2023-06-01T07:28:57;18.42;;;5.85;;
49384;SDS011;36795;45.028;38.968;2023-06-01T07:32:18;19.73;;;6.37;;
49384;SDS011;36795;45.028;38.968;2023-06-01T07:35:18;20.12;;;5.78;;
49384;SDS011;36795;45.028;38.968;2023-06-01T07:38:41;16.65;;;5.75;;
49384;SDS011;36795;45.028;38.968;2023-06-01T07:41:57;21.45;;;6.45;;
49384;SDS011;36795;45.028;38.968;2023-06-01T07:45:11;17.92;;;5.87;;
49384;SDS011;36795;45.028;38.968;2023-06-01T07:48:24;21.45;;;6.32;;
49384;SDS011;36795;45.028;38.968;2023-06-01T07:51:33;19.58;;;6.32;;
49384;SDS011;36795;45.028;38.968;2023-06-01T07:54:40;21.45;;;6.82;;
49384;SDS011;36795;45.028;38.968;2023-06-01T07:57:40;18.98;;;5.62;;
49384;SDS011;36795;45.028;38.968;2023-06-01T08:00:53;19.73;;;6.32;;
49384;SDS011;36795;45.028;38.968;2023-06-01T08:04:05;21.30;;;6.47;;
49384;SDS011;36795;45.028;38.968;2023-06-01T08:07:15;20.52;;;7.25;;
49384;SDS011;36795;45.028;38.968;2023-06-01T08:10:26;22.85;;;6.12;;
49384;SDS011;36795;45.028;38.968;2023-06-01T08:13:34;22.02;;;5.37;;
49384;SDS011;36795;45.028;38.968;2023-06-01T08:16:38;16.87;;;5.78;;
49384;SDS011;36795;45.028;38.968;2023-06-01T08:19:43;18.05;;;6.15;;
49384;SDS011;36795;45.028;38.968;2023-06-01T08:22:56;19.40;;;6.87;;
49384;SDS011;36795;45.028;38.968;2023-06-01T08:29:04;21.80;;;6.95;;
49384;SDS011;36795;45.028;38.968;2023-06-01T08:32:15;20.83;;;6.00;;
49384;SDS011;36795;45.028;38.968;2023-06-01T08:35:22;19.65;;;6.37;;
49384;SDS011;36795;45.028;38.968;2023-06-01T08:38:32;19.92;;;6.75;;
49384;SDS011;36795;45.028;38.968;2023-06-01T08:41:50;21.10;;;6.45;;
49384;SDS011;36795;45.028;38.968;2023-06-01T08:45:19;24.75;;;6.53;;
49384;SDS011;36795;45.028;38.968;2023-06-01T08:48:30;31.50;;;6.60;;
49384;SDS011;36795;45.028;38.968;2023-06-01T08:51:52;18.90;;;5.30;;
49384;SDS011;36795;45.028;38.968;2023-06-01T08:58:43;17.20;;;4.80;;
49384;SDS011;36795;45.028;38.968;2023-06-01T09:01:57;23.12;;;5.18;;
49384;SDS011;36795;45.028;38.968;2023-06-01T09:05:08;17.33;;;4.97;;
49384;SDS011;36795;45.028;38.968;2023-06-01T09:08:20;18.05;;;4.80;;
49384;SDS011;36795;45.028;38.968;2023-06-01T09:11:41;14.93;;;4.18;;
49384;SDS011;36795;45.028;38.968;2023-06-01T09:14:50;19.48;;;5.53;;
49384;SDS011;36795;45.028;38.968;2023-06-01T09:18:25;16.80;;;5.12;;
49384;SDS011;36795;45.028;38.968;2023-06-01T09:21:31;19.03;;;4.57;;
49384;SDS011;36795;45.028;38.968;2023-06-01T09:24:36;14.57;;;4.37;;
49384;SDS011;36795;45.028;38.968;2023-06-01T09:27:50;20.67;;;5.25;;
49384;SDS011;36795;45.028;38.968;2023-06-01T09:31:03;17.15;;;4.47;;
49384;SDS011;36795;45.028;38.968;2023-06-01T09:34:19;14.95;;;4.30;;
49384;SDS011;36795;45.028;38.968;2023-06-01T09:37:36;15.73;;;4.40;;
49384;SDS011;36795;45.028;38.968;2023-06-01T09:41:17;19.70;;;4.40;;
49384;SDS011;36795;45.028;38.968;2023-06-01T09:44:43;19.67;;;4.47;;
49384;SDS011;36795;45.028;38.968;2023-06-01T09:48:18;15.70;;;3.05;;
49384;SDS011;36795;45.028;38.968;2023-06-01T09:51:40;9.70;;;2.87;;
49384;SDS011;36795;45.028;38.968;2023-06-01T09:55:04;12.18;;;2.92;;
49384;SDS011;36795;45.028;38.968;2023-06-01T09:58:18;15.57;;;4.70;;
49384;SDS011;36795;45.028;38.968;2023-06-01T10:01:40;11.77;;;3.35;;
49384;SDS011;36795;45.028;38.968;2023-06-01T10:04:58;17.45;;;3.80;;
49384;SDS011;36795;45.028;38.968;2023-06-01T10:08:04;14.15;;;3.80;;
49384;SDS011;36795;45.028;38.968;2023-06-01T10:11:14;14.43;;;3.72;;
49384;SDS011;36795;45.028;38.968;2023-06-01T10:14:25;16.67;;;3.58;;
49384;SDS011;36795;45.028;38.968;2023-06-01T10:17:40;15.85;;;3.92;;
49384;SDS011;36795;45.028;38.968;2023-06-01T10:20:43;14.20;;;3.85;;
49384;SDS011;36795;45.028;38.968;2023-06-01T10:23:54;16.05;;;4.12;;
49384;SDS011;36795;45.028;38.968;2023-06-01T10:30:26;23.58;;;4.65;;
49384;SDS011;36795;45.028;38.968;2023-06-01T10:40:47;17.65;;;4.40;;
49384;SDS011;36795;45.028;38.968;2023-06-01T10:46:42;18.80;;;3.92;;
49384;SDS011;36795;45.028;38.968;2023-06-01T10:50:32;18.25;;;4.10;;
49384;SDS011;36795;45.028;38.968;2023-06-01T10:53:46;17.45;;;4.90;;
49384;SDS011;36795;45.028;38.968;2023-06-01T10:57:19;18.30;;;4.28;;
49384;SDS011;36795;45.028;38.968;2023-06-01T11:00:40;16.87;;;4.12;;
49384;SDS011;36795;45.028;38.968;2023-06-01T11:03:53;14.00;;;3.83;;
49384;SDS011;36795;45.028;38.968;2023-06-01T11:06:53;15.25;;;4.05;;
49384;SDS011;36795;45.028;38.968;2023-06-01T11:10:53;17.58;;;4.50;;
49384;SDS011;36795;45.028;38.968;2023-06-01T11:14:08;20.05;;;4.37;;
49384;SDS011;36795;45.028;38.968;2023-06-01T11:17:27;15.00;;;4.43;;
49384;SDS011;36795;45.028;38.968;2023-06-01T11:20:38;12.15;;;3.70;;
49384;SDS011;36795;45.028;38.968;2023-06-01T11:26:51;17.90;;;4.28;;
49384;SDS011;36795;45.028;38.968;2023-06-01T11:29:53;14.20;;;3.50;;
49384;SDS011;36795;45.028;38.968;2023-06-01T11:32:45;17.35;;;3.42;;
49384;SDS011;36795;45.028;38.968;2023-06-01T11:39:26;15.75;;;4.12;;
49384;SDS011;36795;45.028;38.968;2023-06-01T11:42:34;14.13;;;3.72;;
49384;SDS011;36795;45.028;38.968;2023-06-01T11:45:29;20.92;;;4.00;;
49384;SDS011;36795;45.028;38.968;2023-06-01T11:48:29;16.95;;;3.87;;
49384;SDS011;36795;45.028;38.968;2023-06-01T11:51:26;19.48;;;4.87;;
49384;SDS011;36795;45.028;38.968;2023-06-01T11:54:39;19.83;;;4.32;;
49384;SDS011;36795;45.028;38.968;2023-06-01T12:01:13;17.83;;;4.28;;
49384;SDS011;36795;45.028;38.968;2023-06-01T12:04:24;18.33;;;4.32;;
49384;SDS011;36795;45.028;38.968;2023-06-01T12:10:48;18.20;;;4.15;;
49384;SDS011;36795;45.028;38.968;2023-06-01T12:13:47;17.17;;;3.90;;
49384;SDS011;36795;45.028;38.968;2023-06-01T12:16:53;19.55;;;4.30;;
49384;SDS011;36795;45.028;38.968;2023-06-01T12:19:57;19.25;;;4.45;;
49384;SDS011;36795;45.028;38.968;2023-06-01T12:23:21;18.17;;;4.05;;
49384;SDS011;36795;45.028;38.968;2023-06-01T12:26:23;15.57;;;3.50;;
49384;SDS011;36795;45.028;38.968;2023-06-01T12:29:47;15.63;;;3.72;;
49384;SDS011;36795;45.028;38.968;2023-06-01T12:33:02;15.38;;;3.87;;
49384;SDS011;36795;45.028;38.968;2023-06-01T12:36:01;17.95;;;3.87;;
49384;SDS011;36795;45.028;38.968;2023-06-01T12:39:07;21.05;;;3.40;;
49384;SDS011;36795;45.028;38.968;2023-06-01T12:49:11;32.25;;;9.18;;
49384;SDS011;36795;45.028;38.968;2023-06-01T12:52:19;14.70;;;3.97;;
49384;SDS011;36795;45.028;38.968;2023-06-01T12:55:20;17.67;;;4.37;;
49384;SDS011;36795;45.028;38.968;2023-06-01T12:58:29;15.27;;;3.95;;
49384;SDS011;36795;45.028;38.968;2023-06-01T13:01:31;14.55;;;3.42;;
49384;SDS011;36795;45.028;38.968;2023-06-01T13:04:22;16.80;;;4.62;;
49384;SDS011;36795;45.028;38.968;2023-06-01T13:07:37;15.13;;;3.78;;
49384;SDS011;36795;45.028;38.968;2023-06-01T13:10:32;14.90;;;4.10;;
49384;SDS011;36795;45.028;38.968;2023-06-01T13:13:30;18.67;;;3.78;;
49384;SDS011;36795;45.028;38.968;2023-06-01T13:16:23;16.30;;;3.85;;
49384;SDS011;36795;45.028;38.968;2023-06-01T13:19:25;15.82;;;3.90;;
49384;SDS011;36795;45.028;38.968;2023-06-01T13:22:22;20.12;;;4.30;;
49384;SDS011;36795;45.028;38.968;2023-06-01T13:25:20;20.80;;;4.50;;
49384;SDS011;36795;45.028;38.968;2023-06-01T13:28:17;11.00;;;3.50;;
49384;SDS011;36795;45.028;38.968;2023-06-01T13:31:15;14.90;;;4.03;;
49384;SDS011;36795;45.028;38.968;2023-06-01T13:34:41;13.50;;;3.90;;
49384;SDS011;36795;45.028;38.968;2023-06-01T13:37:37;17.08;;;4.57;;
49384;SDS011;36795;45.028;38.968;2023-06-01T13:40:30;17.27;;;4.20;;
49384;SDS011;36795;45.028;38.968;2023-06-01T13:43:55;19.40;;;4.07;;
49384;SDS011;36795;45.028;38.968;2023-06-01T13:46:57;14.73;;;3.95;;
49384;SDS011;36795;45.028;38.968;2023-06-01T13:50:06;16.58;;;4.05;;
49384;SDS011;36795;45.028;38.968;2023-06-01T13:53:08;20.25;;;4.80;;
49384;SDS011;36795;45.028;38.968;2023-06-01T13:56:11;17.62;;;4.10;;
49384;SDS011;36795;45.028;38.968;2023-06-01T13:59:15;17.80;;;3.90;;
49384;SDS011;36795;45.028;38.968;2023-06-01T14:02:16;11.45;;;3.60;;
49384;SDS011;36795;45.028;38.968;2023-06-01T14:05:29;20.17;;;3.58;;
49384;SDS011;36795;45.028;38.968;2023-06-01T14:08:29;22.80;;;5.03;;
49384;SDS011;36795;45.028;38.968;2023-06-01T14:11:29;18.25;;;4.35;;
49384;SDS011;36795;45.028;38.968;2023-06-01T14:14:27;17.02;;;3.90;;
49384;SDS011;36795;45.028;38.968;2023-06-01T14:17:22;15.65;;;4.20;;
49384;SDS011;36795;45.028;38.968;2023-06-01T14:20:21;16.77;;;3.95;;
49384;SDS011;36795;45.028;38.968;2023-06-01T14:23:17;16.83;;;4.45;;
49384;SDS011;36795;45.028;38.968;2023-06-01T14:26:23;13.30;;;3.95;;
49384;SDS011;36795;45.028;38.968;2023-06-01T14:29:19;19.10;;;4.68;;
49384;SDS011;36795;45.028;38.968;2023-06-01T14:32:18;18.12;;;4.03;;
49384;SDS011;36795;45.028;38.968;2023-06-01T14:35:15;18.33;;;4.68;;
49384;SDS011;36795;45.028;38.968;2023-06-01T14:38:20;20.60;;;4.45;;
49384;SDS011;36795;45.028;38.968;2023-06-01T14:41:14;17.42;;;4.80;;
49384;SDS011;36795;45.028;38.968;2023-06-01T14:44:35;17.20;;;4.40;;
49384;SDS011;36795;45.028;38.968;2023-06-01T14:47:45;20.00;;;4.90;;
49384;SDS011;36795;45.028;38.968;2023-06-01T14:50:58;16.75;;;4.62;;
49384;SDS011;36795;45.028;38.968;2023-06-01T14:53:59;23.77;;;5.10;;
49384;SDS011;36795;45.028;38.968;2023-06-01T14:57:03;14.33;;;4.10;;
49384;SDS011;36795;45.028;38.968;2023-06-01T15:00:05;18.67;;;4.80;;
49384;SDS011;36795;45.028;38.968;2023-06-01T15:03:14;21.60;;;4.50;;
49384;SDS011;36795;45.028;38.968;2023-06-01T15:06:15;15.38;;;4.28;;
49384;SDS011;36795;45.028;38.968;2023-06-01T15:09:20;20.15;;;4.45;;
49384;SDS011;36795;45.028;38.968;2023-06-01T15:12:26;17.30;;;4.70;;
49384;SDS011;36795;45.028;38.968;2023-06-01T15:15:30;16.30;;;4.20;;
49384;SDS011;36795;45.028;38.968;2023-06-01T15:18:21;16.90;;;4.62;;
49384;SDS011;36795;45.028;38.968;2023-06-01T15:21:24;20.73;;;4.97;;
49384;SDS011;36795;45.028;38.968;2023-06-01T15:24:29;19.50;;;4.18;;
49384;SDS011;36795;45.028;38.968;2023-06-01T15:27:28;15.98;;;3.85;;
49384;SDS011;36795;45.028;38.968;2023-06-01T15:30:34;18.12;;;4.50;;
49384;SDS011;36795;45.028;38.968;2023-06-01T15:33:41;18.70;;;5.10;;
49384;SDS011;36795;45.028;38.968;2023-06-01T15:36:46;18.20;;;4.62;;
49384;SDS011;36795;45.028;38.968;2023-06-01T15:40:01;17.70;;;4.05;;
49384;SDS011;36795;45.028;38.968;2023-06-01T15:43:05;22.58;;;5.50;;
49384;SDS011;36795;45.028;38.968;2023-06-01T15:46:12;22.70;;;7.70;;
49384;SDS011;36795;45.028;38.968;2023-06-01T15:49:09;20.83;;;4.87;;
49384;SDS011;36795;45.028;38.968;2023-06-01T15:52:04;21.45;;;4.90;;
49384;SDS011;36795;45.028;38.968;2023-06-01T15:55:04;16.80;;;4.28;;
49384;SDS011;36795;45.028;38.968;2023-06-01T15:58:02;23.92;;;5.20;;
49384;SDS011;36795;45.028;38.968;2023-06-01T16:01:03;17.90;;;4.65;;
49384;SDS011;36795;45.028;38.968;2023-06-01T16:04:09;21.42;;;6.30;;
49384;SDS011;36795;45.028;38.968;2023-06-01T16:07:30;24.12;;;5.78;;
49384;SDS011;36795;45.028;38.968;2023-06-01T16:10:36;19.85;;;5.37;;
49384;SDS011;36795;45.028;38.968;2023-06-01T16:13:31;16.15;;;4.65;;
49384;SDS011;36795;45.028;38.968;2023-06-01T16:16:38;17.67;;;5.53;;
49384;SDS011;36795;45.028;38.968;2023-06-01T16:19:44;18.27;;;5.15;;
49384;SDS011;36795;45.028;38.968;2023-06-01T16:22:39;21.42;;;5.03;;
49384;SDS011;36795;45.028;38.968;2023-06-01T16:25:37;21.95;;;5.80;;
49384;SDS011;36795;45.028;38.968;2023-06-01T16:28:36;14.63;;;4.72;;
49384;SDS011;36795;45.028;38.968;2023-06-01T16:31:48;23.00;;;5.72;;
49384;SDS011;36795;45.028;38.968;2023-06-01T16:34:50;24.80;;;5.90;;
49384;SDS011;36795;45.028;38.968;2023-06-01T16:37:43;22.23;;;6.60;;
49384;SDS011;36795;45.028;38.968;2023-06-01T16:40:51;20.23;;;6.55;;
49384;SDS011;36795;45.028;38.968;2023-06-01T16:43:56;42.15;;;9.32;;
49384;SDS011;36795;45.028;38.968;2023-06-01T16:47:03;21.17;;;5.60;;
49384;SDS011;36795;45.028;38.968;2023-06-01T16:50:05;29.40;;;5.93;;
49384;SDS011;36795;45.028;38.968;2023-06-01T16:53:16;19.65;;;5.03;;
49384;SDS011;36795;45.028;38.968;2023-06-01T16:56:11;20.83;;;5.35;;
49384;SDS011;36795;45.028;38.968;2023-06-01T17:02:16;20.42;;;5.40;;
49384;SDS011;36795;45.028;38.968;2023-06-01T17:05:35;19.08;;;4.97;;
49384;SDS011;36795;45.028;38.968;2023-06-01T17:08:38;19.42;;;4.43;;
49384;SDS011;36795;45.028;38.968;2023-06-01T17:11:39;18.08;;;5.18;;
49384;SDS011;36795;45.028;38.968;2023-06-01T17:14:38;24.50;;;5.53;;
49384;SDS011;36795;45.028;38.968;2023-06-01T17:17:34;15.88;;;5.05;;
49384;SDS011;36795;45.028;38.968;2023-06-01T17:20:33;18.85;;;5.00;;
49384;SDS011;36795;45.028;38.968;2023-06-01T17:23:44;19.33;;;5.43;;
49384;SDS011;36795;45.028;38.968;2023-06-01T17:26:42;16.00;;;4.45;;
49384;SDS011;36795;45.028;38.968;2023-06-01T17:30:05;21.50;;;4.68;;
49384;SDS011;36795;45.028;38.968;2023-06-01T17:33:00;21.15;;;5.68;;
49384;SDS011;36795;45.028;38.968;2023-06-01T17:35:59;18.52;;;4.15;;
49384;SDS011;36795;45.028;38.968;2023-06-01T17:39:05;19.33;;;4.45;;
49384;SDS011;36795;45.028;38.968;2023-06-01T17:42:05;22.40;;;4.65;;
49384;SDS011;36795;45.028;38.968;2023-06-01T17:45:21;17.70;;;4.70;;
49384;SDS011;36795;45.028;38.968;2023-06-01T17:48:35;19.15;;;4.78;;
49384;SDS011;36795;45.028;38.968;2023-06-01T17:51:44;17.90;;;4.50;;
49384;SDS011;36795;45.028;38.968;2023-06-01T17:54:54;20.48;;;5.05;;
49384;SDS011;36795;45.028;38.968;2023-06-01T17:57:58;18.80;;;4.85;;
49384;SDS011;36795;45.028;38.968;2023-06-01T18:01:08;19.15;;;5.32;;
49384;SDS011;36795;45.028;38.968;2023-06-01T18:04:16;17.87;;;5.22;;
49384;SDS011;36795;45.028;38.968;2023-06-01T18:07:27;20.10;;;5.57;;
49384;SDS011;36795;45.028;38.968;2023-06-01T18:10:48;20.88;;;5.45;;
49384;SDS011;36795;45.028;38.968;2023-06-01T18:13:58;18.65;;;5.57;;
49384;SDS011;36795;45.028;38.968;2023-06-01T18:17:06;22.05;;;5.50;;
49384;SDS011;36795;45.028;38.968;2023-06-01T18:20:09;21.25;;;5.37;;
49384;SDS011;36795;45.028;38.968;2023-06-01T18:23:11;18.73;;;5.03;;
49384;SDS011;36795;45.028;38.968;2023-06-01T18:26:17;19.65;;;6.20;;
49384;SDS011;36795;45.028;38.968;2023-06-01T18:29:36;22.17;;;5.57;;
49384;SDS011;36795;45.028;38.968;2023-06-01T18:32:52;20.73;;;5.75;;
49384;SDS011;36795;45.028;38.968;2023-06-01T18:35:51;19.75;;;6.05;;
49384;SDS011;36795;45.028;38.968;2023-06-01T18:38:58;19.35;;;6.00;;
49384;SDS011;36795;45.028;38.968;2023-06-01T18:42:17;16.73;;;5.45;;
49384;SDS011;36795;45.028;38.968;2023-06-01T18:45:31;25.83;;;6.32;;
49384;SDS011;36795;45.028;38.968;2023-06-01T18:48:42;17.50;;;5.18;;
49384;SDS011;36795;45.028;38.968;2023-06-01T18:51:49;18.77;;;5.80;;
49384;SDS011;36795;45.028;38.968;2023-06-01T18:54:57;22.23;;;5.57;;
49384;SDS011;36795;45.028;38.968;2023-06-01T18:58:10;21.60;;;5.45;;
49384;SDS011;36795;45.028;38.968;2023-06-01T19:01:34;21.58;;;5.90;;
49384;SDS011;36795;45.028;38.968;2023-06-01T19:04:42;19.85;;;5.43;;
49384;SDS011;36795;45.028;38.968;2023-06-01T19:08:01;19.62;;;5.80;;
49384;SDS011;36795;45.028;38.968;2023-06-01T19:11:05;21.25;;;5.30;;
49384;SDS011;36795;45.028;38.968;2023-06-01T19:14:14;18.70;;;5.32;;
49384;SDS011;36795;45.028;38.968;2023-06-01T19:17:20;21.48;;;5.37;;
49384;SDS011;36795;45.028;38.968;2023-06-01T19:20:51;100.20;;;11.50;;
49384;SDS011;36795;45.028;38.968;2023-06-01T19:24:18;20.33;;;5.53;;
49384;SDS011;36795;45.028;38.968;2023-06-01T19:27:59;27.73;;;6.53;;
49384;SDS011;36795;45.028;38.968;2023-06-01T19:31:11;21.02;;;5.97;;
49384;SDS011;36795;45.028;38.968;2023-06-01T19:34:21;20.15;;;5.87;;